createdAt,value
2019-02-02T00:00:16.305Z,91.38
2019-02-02T00:02:42.616Z,91.68
2019-02-02T00:05:08.926Z,92.70
2019-02-02T00:07:35.235Z,92.31
2019-02-02T00:10:01.665Z,92.31
2019-02-02T00:12:27.846Z,93.17
2019-02-02T00:14:54.162Z,93.15
2019-02-02T00:17:20.598Z,93.53
2019-02-02T00:19:46.776Z,93.63
2019-02-02T00:22:13.083Z,93.79
2019-02-02T00:24:41.122Z,93.23
2019-02-02T00:27:07.367Z,93.25
2019-02-02T00:29:33.683Z,93.34
2019-02-02T00:31:59.994Z,93.51
2019-02-02T00:34:26.308Z,93.80
2019-02-02T00:36:52.617Z,94.49
2019-02-02T00:39:18.934Z,94.63
2019-02-02T00:41:45.239Z,94.75
2019-02-02T00:44:11.558Z,94.88
2019-02-02T00:46:37.861Z,94.77
2019-02-02T00:49:04.171Z,94.73
2019-02-02T00:51:30.476Z,94.77
2019-02-02T00:53:56.803Z,94.67
2019-02-02T00:56:23.113Z,94.52
2019-02-02T00:58:49.465Z,94.57
2019-02-02T01:01:15.760Z,94.07
2019-02-02T01:03:42.086Z,93.57
2019-02-02T01:06:08.398Z,92.62
2019-02-02T01:08:34.705Z,92.69
2019-02-02T01:11:01.013Z,92.61
2019-02-02T01:13:27.324Z,91.97
2019-02-02T01:15:53.632Z,91.63
2019-02-02T01:18:19.952Z,92.19
2019-02-02T01:20:46.301Z,92.94
2019-02-02T01:23:12.579Z,93.25
2019-02-02T01:25:38.887Z,93.35
2019-02-02T01:28:05.767Z,93.55
2019-02-02T01:30:31.525Z,92.50
2019-02-02T01:32:57.833Z,91.56
2019-02-02T01:35:24.345Z,90.89
2019-02-02T01:37:50.657Z,90.85
2019-02-02T01:40:16.967Z,91.09
2019-02-02T01:42:43.314Z,91.21
2019-02-02T01:45:09.623Z,91.00
2019-02-02T01:47:35.946Z,90.56
2019-02-02T01:50:02.400Z,91.09
2019-02-02T01:52:28.566Z,91.86
2019-02-02T01:54:54.871Z,92.17
2019-02-02T01:57:21.181Z,91.95
2019-02-02T01:59:47.488Z,92.14
2019-02-02T02:02:13.801Z,92.61
2019-02-02T02:04:40.110Z,92.26
2019-02-02T02:07:06.417Z,91.91
2019-02-02T02:09:32.725Z,91.87
2019-02-02T02:11:59.034Z,91.35
2019-02-02T02:14:25.339Z,91.62
2019-02-02T02:16:51.651Z,91.99
2019-02-02T02:19:17.964Z,92.39
2019-02-02T02:21:44.279Z,93.10
2019-02-02T02:24:10.655Z,92.66
2019-02-02T02:26:36.919Z,92.48
2019-02-02T02:29:03.231Z,93.15
2019-02-02T02:31:29.538Z,93.44
2019-02-02T02:33:55.841Z,93.53
2019-02-02T02:36:22.155Z,93.84
2019-02-02T02:38:48.458Z,94.93
2019-02-02T02:41:14.772Z,94.28
2019-02-02T02:43:41.084Z,93.58
2019-02-02T02:46:07.402Z,93.49
2019-02-02T02:48:33.713Z,93.49
2019-02-02T02:51:00.024Z,93.93
2019-02-02T02:53:26.331Z,94.10
2019-02-02T02:55:52.646Z,94.37
2019-02-02T02:58:18.962Z,93.69
2019-02-02T03:00:45.271Z,93.89
2019-02-02T03:03:11.594Z,94.01
2019-02-02T03:05:37.911Z,93.66
2019-02-02T03:08:04.209Z,93.16
2019-02-02T03:10:30.517Z,92.88
2019-02-02T03:12:56.820Z,93.03
2019-02-02T03:15:23.266Z,93.13
2019-02-02T03:17:49.439Z,93.90
2019-02-02T03:20:15.753Z,94.07
2019-02-02T03:22:42.057Z,93.99
2019-02-02T03:25:08.369Z,93.84
2019-02-02T03:27:34.677Z,93.55
2019-02-02T03:30:01.167Z,93.65
2019-02-02T03:32:27.309Z,93.66
2019-02-02T03:34:53.611Z,93.86
2019-02-02T03:37:19.919Z,94.12
2019-02-02T03:39:46.227Z,94.27
2019-02-02T03:42:12.534Z,94.27
2019-02-02T03:44:38.845Z,94.08
2019-02-02T03:47:05.153Z,93.93
2019-02-02T03:49:31.461Z,93.54
2019-02-02T03:51:57.769Z,93.87
2019-02-02T03:54:24.082Z,93.66
2019-02-02T03:56:50.390Z,93.86
2019-02-02T03:59:16.694Z,93.80
2019-02-02T04:01:43.003Z,93.85
2019-02-02T04:04:09.303Z,93.81
2019-02-02T04:06:35.612Z,93.51
2019-02-02T04:09:01.915Z,94.10
2019-02-02T04:11:28.230Z,94.69
2019-02-02T04:13:54.537Z,94.98
2019-02-02T04:16:20.843Z,94.85
2019-02-02T04:18:47.149Z,94.20
2019-02-02T04:21:13.457Z,94.09
2019-02-02T04:23:39.763Z,94.53
2019-02-02T04:26:06.070Z,94.13
2019-02-02T04:28:32.374Z,93.93
2019-02-02T04:30:58.804Z,94.02
2019-02-02T04:33:24.985Z,94.28
2019-02-02T04:35:51.292Z,94.13
2019-02-02T04:38:17.605Z,94.76
2019-02-02T04:40:43.922Z,94.99
2019-02-02T04:43:10.233Z,95.25
2019-02-02T04:45:36.538Z,95.28
2019-02-02T04:48:02.844Z,94.77
2019-02-02T04:50:29.148Z,95.42
2019-02-02T04:52:55.455Z,95.95
2019-02-02T04:55:21.760Z,96.25
2019-02-02T04:57:48.074Z,96.27
2019-02-02T05:00:14.381Z,95.86
2019-02-02T05:02:40.688Z,95.74
2019-02-02T05:05:06.999Z,95.66
2019-02-02T05:07:33.313Z,95.80
2019-02-02T05:09:59.620Z,95.71
2019-02-02T05:12:25.930Z,95.93
2019-02-02T05:14:52.241Z,95.63
2019-02-02T05:17:18.555Z,95.33
2019-02-02T05:19:44.861Z,95.54
2019-02-02T05:22:11.178Z,95.65
2019-02-02T05:24:37.523Z,96.38
2019-02-02T05:27:03.858Z,96.63
2019-02-02T05:29:40.678Z,96.20
2019-02-02T05:31:56.471Z,96.84
2019-02-02T05:34:22.791Z,97.34
2019-02-02T05:36:49.088Z,97.47
2019-02-02T05:39:15.399Z,97.43
2019-02-02T05:41:41.705Z,97.57
2019-02-02T05:44:08.034Z,97.41
2019-02-02T05:46:34.390Z,97.16
2019-02-02T05:49:00.731Z,97.11
2019-02-02T05:51:27.051Z,96.81
2019-02-02T05:53:53.370Z,96.54
2019-02-02T05:56:19.678Z,96.81
2019-02-02T05:58:45.985Z,97.05
2019-02-02T06:01:12.313Z,97.21
2019-02-02T06:03:38.636Z,97.55
2019-02-02T06:06:04.949Z,97.25
2019-02-02T06:08:31.262Z,97.56
2019-02-02T06:10:57.574Z,97.99
2019-02-02T06:13:23.881Z,98.20
2019-02-02T06:15:50.193Z,98.40
2019-02-02T06:18:16.516Z,98.58
2019-02-02T06:20:42.823Z,98.77
2019-02-02T06:23:09.134Z,98.24
2019-02-02T06:25:35.441Z,98.24
2019-02-02T06:28:01.755Z,97.65
2019-02-02T06:30:28.064Z,97.21
2019-02-02T06:32:54.384Z,96.63
2019-02-02T06:35:20.693Z,96.46
2019-02-02T06:37:47.001Z,96.77
2019-02-02T06:40:13.307Z,96.31
2019-02-02T06:42:39.624Z,96.30
2019-02-02T06:45:05.927Z,96.33
2019-02-02T06:47:32.255Z,95.61
2019-02-02T06:49:58.541Z,94.91
2019-02-02T06:52:24.870Z,94.89
2019-02-02T06:54:51.204Z,94.71
2019-02-02T06:57:17.515Z,94.56
2019-02-02T06:59:43.821Z,94.70
2019-02-02T07:02:10.141Z,94.10
2019-02-02T07:04:36.449Z,94.30
2019-02-02T07:07:02.784Z,93.92
2019-02-02T07:09:29.096Z,93.84
2019-02-02T07:11:55.407Z,93.82
2019-02-02T07:14:21.717Z,93.37
2019-02-02T07:16:48.051Z,93.25
2019-02-02T07:19:14.364Z,93.52
2019-02-02T07:21:40.690Z,92.90
2019-02-02T07:24:07.016Z,92.63
2019-02-02T07:26:33.322Z,92.49
2019-02-02T07:28:59.628Z,91.54
2019-02-02T07:31:25.980Z,90.84
2019-02-02T07:33:52.281Z,90.93
2019-02-02T07:36:18.592Z,90.17
2019-02-02T07:38:44.901Z,89.42
2019-02-02T07:41:11.205Z,88.81
2019-02-02T07:43:37.521Z,88.25
2019-02-02T07:46:13.838Z,88.58
2019-02-02T07:48:35.265Z,87.74
2019-02-02T07:51:01.568Z,87.16
2019-02-02T07:53:27.876Z,86.63
2019-02-02T07:55:54.190Z,86.51
2019-02-02T07:58:20.502Z,86.23
2019-02-02T08:00:46.813Z,86.31
2019-02-02T08:03:13.119Z,86.42
2019-02-02T08:05:39.430Z,86.59
2019-02-02T08:08:05.741Z,85.94
2019-02-02T08:10:32.045Z,85.43
2019-02-02T08:12:58.367Z,85.19
2019-02-02T08:15:24.675Z,84.71
2019-02-02T08:17:51.093Z,84.30
2019-02-02T08:20:17.288Z,85.38
2019-02-02T08:22:43.649Z,83.79
2019-02-02T08:25:09.960Z,82.98
2019-02-02T08:27:36.267Z,82.70
2019-02-02T08:30:02.586Z,83.29
2019-02-02T08:32:28.896Z,81.69
2019-02-02T08:34:55.200Z,81.99
2019-02-02T08:37:21.508Z,80.83
2019-02-02T08:39:48.902Z,79.40
2019-02-02T08:42:15.208Z,79.08
2019-02-02T08:44:41.525Z,77.85
2019-02-02T08:47:07.881Z,76.59
2019-02-02T08:49:34.185Z,76.00
2019-02-02T08:52:00.490Z,75.30
2019-02-02T08:54:26.812Z,75.91
2019-02-02T08:56:53.115Z,75.34
2019-02-02T08:59:19.428Z,76.11
2019-02-02T09:01:48.099Z,74.77
2019-02-02T09:04:12.046Z,74.48
2019-02-02T09:06:39.355Z,74.35
2019-02-02T09:09:04.662Z,74.05
2019-02-02T09:11:30.971Z,73.00
2019-02-02T09:13:57.279Z,73.53
2019-02-02T09:16:23.678Z,72.90
2019-02-02T09:18:51.354Z,72.93
2019-02-02T09:21:16.295Z,73.47
2019-02-02T09:23:42.611Z,73.08
2019-02-02T09:26:08.924Z,72.67
2019-02-02T09:28:35.258Z,72.54
2019-02-02T09:31:01.560Z,72.42
2019-02-02T09:33:27.873Z,71.96
2019-02-02T09:35:54.200Z,72.27
2019-02-02T09:38:20.508Z,72.72
2019-02-02T09:40:46.841Z,71.72
2019-02-02T09:43:13.155Z,72.02
2019-02-02T09:45:39.465Z,72.39
2019-02-02T09:48:05.795Z,72.09
2019-02-02T09:50:32.096Z,73.20
2019-02-02T09:52:58.401Z,72.04
2019-02-02T09:55:24.728Z,71.57
2019-02-02T09:57:55.205Z,70.95
2019-02-02T10:00:17.352Z,70.59
2019-02-02T10:02:45.933Z,70.52
2019-02-02T10:05:09.992Z,71.04
2019-02-02T10:07:36.317Z,70.24
2019-02-02T10:10:02.630Z,69.86
2019-02-02T10:12:28.941Z,69.88
2019-02-02T10:14:55.247Z,69.66
2019-02-02T10:17:21.678Z,67.71
2019-02-02T10:19:47.876Z,68.43
2019-02-02T10:22:14.183Z,68.21
2019-02-02T10:24:40.493Z,66.50
2019-02-02T10:27:06.800Z,66.02
2019-02-02T10:29:33.132Z,66.53
2019-02-02T10:31:59.490Z,66.46
2019-02-02T10:34:25.827Z,66.27
2019-02-02T10:36:55.039Z,65.78
2019-02-02T10:39:21.877Z,64.92
2019-02-02T10:41:48.145Z,63.53
2019-02-02T10:44:14.480Z,64.22
2019-02-02T10:46:40.789Z,64.40
2019-02-02T10:49:07.098Z,64.08
2019-02-02T10:51:33.406Z,63.66
2019-02-02T10:53:59.758Z,63.88
2019-02-02T10:56:26.113Z,64.07
2019-02-02T10:58:52.426Z,64.18
2019-02-02T11:01:18.738Z,63.00
2019-02-02T11:03:45.053Z,62.92
2019-02-02T11:06:11.371Z,63.39
2019-02-02T11:08:37.847Z,64.09
2019-02-02T11:11:04.104Z,64.05
2019-02-02T11:13:30.489Z,63.99
2019-02-02T11:15:58.029Z,64.39
2019-02-02T11:18:24.220Z,65.73
2019-02-02T11:20:50.575Z,65.59
2019-02-02T11:23:16.763Z,63.09
2019-02-02T11:25:43.101Z,63.39
2019-02-02T11:28:09.574Z,62.80
2019-02-02T11:30:36.155Z,62.61
2019-02-02T11:33:02.416Z,60.32
2019-02-02T11:35:28.729Z,60.16
2019-02-02T11:37:55.034Z,59.43
2019-02-02T11:40:21.353Z,58.68
2019-02-02T11:42:47.667Z,59.02
2019-02-02T11:45:16.985Z,59.77
2019-02-02T11:47:43.185Z,61.00
2019-02-02T11:50:09.495Z,61.87
2019-02-02T11:52:35.805Z,61.19
2019-02-02T11:55:02.115Z,61.57
2019-02-02T11:57:28.427Z,61.92
2019-02-02T11:59:54.743Z,62.72
2019-02-02T12:02:21.059Z,61.37
2019-02-02T12:04:47.369Z,61.89
2019-02-02T12:07:14.050Z,63.35
2019-02-02T12:09:40.256Z,63.28
2019-02-02T12:12:06.567Z,63.09
2019-02-02T12:14:32.881Z,63.03
2019-02-02T12:16:59.187Z,63.03
2019-02-02T12:19:25.519Z,63.37
2019-02-02T12:21:51.813Z,63.27
2019-02-02T12:24:18.123Z,64.04
2019-02-02T12:26:44.437Z,64.76
2019-02-02T12:29:10.743Z,64.52
2019-02-02T12:31:37.059Z,64.20
2019-02-02T12:34:03.380Z,65.01
2019-02-02T12:36:29.700Z,63.52
2019-02-02T12:38:56.002Z,63.55
2019-02-02T12:41:22.313Z,63.82
2019-02-02T12:43:48.619Z,63.77
2019-02-02T12:46:14.928Z,63.88
2019-02-02T12:48:41.232Z,63.68
2019-02-02T12:51:07.556Z,63.27
2019-02-02T12:53:33.861Z,62.92
2019-02-02T12:56:00.168Z,62.92
2019-02-02T12:58:26.480Z,62.87
2019-02-02T13:00:52.818Z,62.93
2019-02-02T13:03:19.101Z,63.08
2019-02-02T13:05:45.414Z,62.86
2019-02-02T13:08:11.722Z,63.08
2019-02-02T13:10:38.030Z,62.07
2019-02-02T13:13:04.339Z,62.25
2019-02-02T13:15:30.651Z,62.48
2019-02-02T13:17:56.969Z,62.59
2019-02-02T13:20:23.309Z,62.84
2019-02-02T13:22:49.620Z,62.95
2019-02-02T13:25:15.936Z,63.31
2019-02-02T13:27:42.249Z,62.85
2019-02-02T13:30:08.557Z,63.17
2019-02-02T13:32:34.885Z,63.37
2019-02-02T13:35:01.193Z,63.67
2019-02-02T13:37:27.506Z,63.04
2019-02-02T13:39:53.815Z,63.44
2019-02-02T13:42:20.141Z,63.48
2019-02-02T13:44:46.449Z,63.43
2019-02-02T13:47:12.762Z,63.69
2019-02-02T13:49:39.066Z,64.30
2019-02-02T13:52:05.379Z,64.46
2019-02-02T13:54:31.686Z,64.83
2019-02-02T13:56:57.995Z,65.01
2019-02-02T13:59:24.300Z,65.25
2019-02-02T14:01:50.609Z,65.24
2019-02-02T14:04:16.917Z,65.88
2019-02-02T14:06:43.224Z,66.08
2019-02-02T14:09:09.531Z,66.24
2019-02-02T14:11:35.845Z,66.55
2019-02-02T14:14:02.168Z,67.25
2019-02-02T14:16:28.459Z,67.52
2019-02-02T14:18:54.770Z,68.11
2019-02-02T14:21:21.080Z,69.17
2019-02-02T14:23:47.395Z,68.97
2019-02-02T14:26:13.708Z,69.26
2019-02-02T14:28:40.034Z,69.86
2019-02-02T14:31:06.344Z,69.45
2019-02-02T14:33:32.674Z,70.17
2019-02-02T14:36:01.812Z,70.95
2019-02-02T14:38:25.331Z,70.30
2019-02-02T14:40:51.611Z,72.14
2019-02-02T14:43:17.948Z,70.55
2019-02-02T14:45:44.252Z,71.36
2019-02-02T14:48:10.561Z,71.85
2019-02-02T14:50:36.869Z,71.89
2019-02-02T14:53:03.179Z,72.70
2019-02-02T14:55:29.533Z,73.20
2019-02-02T14:57:55.798Z,73.83
2019-02-02T15:00:22.114Z,73.74
2019-02-02T15:02:48.428Z,73.94
2019-02-02T15:05:14.732Z,74.16
2019-02-02T15:07:41.042Z,73.47
2019-02-02T15:10:07.347Z,74.45
2019-02-02T15:12:33.676Z,74.21
2019-02-02T15:14:59.980Z,71.93
2019-02-02T15:17:26.283Z,72.80
2019-02-02T15:19:52.588Z,72.72
2019-02-02T15:22:18.926Z,72.10
2019-02-02T15:24:45.234Z,72.55
2019-02-02T15:27:14.461Z,72.66
2019-02-02T15:29:37.862Z,73.75
2019-02-02T15:32:04.164Z,71.77
2019-02-02T15:34:30.472Z,72.59
2019-02-02T15:36:56.783Z,73.08
2019-02-02T15:39:23.105Z,73.40
2019-02-02T15:41:53.033Z,74.58
2019-02-02T15:44:15.718Z,73.87
2019-02-02T15:46:49.201Z,74.11
2019-02-02T15:49:08.680Z,74.72
2019-02-02T15:51:40.221Z,74.45
2019-02-02T15:54:01.307Z,74.51
2019-02-02T15:56:27.616Z,74.76
2019-02-02T15:58:53.919Z,75.28
2019-02-02T16:01:20.226Z,75.70
2019-02-02T16:03:49.666Z,75.49
2019-02-02T16:06:12.843Z,75.86
2019-02-02T16:08:39.154Z,75.69
2019-02-02T16:11:05.473Z,75.63
2019-02-02T16:13:31.779Z,75.65
2019-02-02T16:15:58.104Z,76.07
2019-02-02T16:18:24.412Z,75.54
2019-02-02T16:20:50.718Z,75.49
2019-02-02T16:23:17.023Z,75.48
2019-02-02T16:25:43.332Z,75.96
2019-02-02T16:28:09.696Z,76.13
2019-02-02T16:30:36.017Z,76.42
2019-02-02T16:33:02.344Z,76.77
2019-02-02T16:35:28.666Z,77.22
2019-02-02T16:37:54.987Z,77.66
2019-02-02T16:40:21.320Z,77.59
2019-02-02T16:42:47.637Z,77.93
2019-02-02T16:45:13.967Z,77.97
2019-02-02T16:47:40.288Z,78.09
2019-02-02T16:50:06.609Z,78.24
2019-02-02T16:52:32.914Z,78.46
2019-02-02T16:54:59.237Z,78.69
2019-02-02T16:57:25.542Z,78.91
2019-02-02T16:59:51.847Z,78.66
2019-02-02T17:02:18.177Z,78.82
2019-02-02T17:04:44.486Z,79.39
2019-02-02T17:07:10.872Z,79.24
2019-02-02T17:09:37.118Z,79.51
2019-02-02T17:12:03.431Z,79.44
2019-02-02T17:14:29.759Z,79.50
2019-02-02T17:16:56.064Z,79.79
2019-02-02T17:19:22.375Z,80.05
2019-02-02T17:21:48.723Z,80.62
2019-02-02T17:24:16.004Z,81.15
2019-02-02T17:26:42.315Z,81.41
2019-02-02T17:29:08.620Z,81.38
2019-02-02T17:31:34.929Z,81.05
2019-02-02T17:34:01.233Z,81.23
2019-02-02T17:36:27.558Z,81.18
2019-02-02T17:38:53.867Z,81.40
2019-02-02T17:41:20.425Z,80.54
2019-02-02T17:43:46.736Z,80.32
2019-02-02T17:46:13.175Z,80.42
2019-02-02T17:48:39.489Z,79.92
2019-02-02T17:51:05.801Z,79.20
2019-02-02T17:53:32.104Z,79.04
2019-02-02T17:55:58.416Z,79.06
2019-02-02T17:58:24.728Z,79.14
2019-02-02T18:00:51.031Z,79.08
2019-02-02T18:03:17.339Z,79.42
2019-02-02T18:05:43.651Z,79.66
2019-02-02T18:08:09.950Z,79.89
2019-02-02T18:10:36.270Z,79.85
2019-02-02T18:13:02.580Z,79.90
2019-02-02T18:15:28.893Z,80.09
2019-02-02T18:17:55.209Z,80.10
2019-02-02T18:20:21.517Z,79.94
2019-02-02T18:22:47.832Z,79.79
2019-02-02T18:25:14.141Z,79.76
2019-02-02T18:27:40.444Z,79.58
2019-02-02T18:30:06.827Z,79.48
2019-02-02T18:32:33.394Z,79.78
2019-02-02T18:34:59.739Z,79.67
2019-02-02T18:37:26.071Z,79.77
2019-02-02T18:39:52.384Z,79.83
2019-02-02T18:42:18.678Z,80.19
2019-02-02T18:44:45.272Z,80.96
2019-02-02T18:47:11.575Z,81.12
2019-02-02T18:49:37.976Z,80.95
2019-02-02T18:52:06.207Z,81.80
2019-02-02T18:54:30.639Z,81.17
2019-02-02T18:56:56.921Z,81.64
2019-02-02T18:59:23.230Z,82.63
2019-02-02T19:01:49.630Z,82.74
2019-02-02T19:04:28.506Z,82.85
2019-02-02T19:06:48.693Z,82.68
2019-02-02T19:09:14.998Z,83.58
2019-02-02T19:11:41.395Z,83.84
2019-02-02T19:14:07.705Z,84.30
2019-02-02T19:16:34.025Z,84.41
2019-02-02T19:19:00.335Z,84.62
2019-02-02T19:21:26.693Z,85.29
2019-02-02T19:23:52.954Z,85.33
2019-02-02T19:26:19.258Z,85.54
2019-02-02T19:28:45.579Z,85.06
2019-02-02T19:31:11.867Z,85.21
2019-02-02T19:33:38.171Z,86.44
2019-02-02T19:36:04.478Z,86.22
2019-02-02T19:38:30.795Z,86.27
2019-02-02T19:40:57.103Z,86.64
2019-02-02T19:43:23.412Z,86.81
2019-02-02T19:45:49.739Z,87.94
2019-02-02T19:48:16.065Z,87.57
2019-02-02T19:50:42.451Z,86.89
2019-02-02T19:53:08.906Z,87.36
2019-02-02T19:55:35.168Z,88.33
2019-02-02T19:58:01.475Z,88.02
2019-02-02T20:00:27.787Z,88.11
2019-02-02T20:02:54.095Z,88.74
2019-02-02T20:05:28.139Z,88.18
2019-02-02T20:07:46.707Z,88.62
2019-02-02T20:10:13.056Z,88.60
2019-02-02T20:12:39.361Z,89.29
2019-02-02T20:15:05.686Z,89.67
2019-02-02T20:17:31.994Z,89.48
2019-02-02T20:19:58.306Z,90.13
2019-02-02T20:22:24.616Z,90.02
2019-02-02T20:24:50.923Z,89.87
2019-02-02T20:27:17.263Z,89.58
2019-02-02T20:29:43.569Z,89.29
2019-02-02T20:32:12.641Z,89.18
2019-02-02T20:34:38.960Z,89.26
2019-02-02T20:37:05.271Z,89.77
2019-02-02T20:39:31.578Z,89.93
2019-02-02T20:41:59.794Z,90.20
2019-02-02T20:44:24.208Z,90.25
2019-02-02T20:46:50.509Z,90.14
2019-02-02T20:49:16.825Z,90.59
2019-02-02T20:51:43.124Z,90.36
2019-02-02T20:54:09.560Z,90.96
2019-02-02T20:56:35.741Z,91.21
2019-02-02T20:59:02.055Z,91.40
2019-02-02T21:01:28.367Z,91.77
2019-02-02T21:03:54.687Z,91.72
2019-02-02T21:06:20.981Z,92.01
2019-02-02T21:08:47.288Z,92.42
2019-02-02T21:11:13.629Z,91.76
2019-02-02T21:13:40.015Z,91.43
2019-02-02T21:16:06.246Z,91.41
2019-02-02T21:18:32.561Z,91.73
2019-02-02T21:20:58.868Z,91.74
2019-02-02T21:23:25.175Z,91.06
2019-02-02T21:25:51.540Z,91.20
2019-02-02T21:28:17.878Z,91.51
2019-02-02T21:30:44.199Z,91.15
2019-02-02T21:33:10.502Z,91.60
2019-02-02T21:35:37.827Z,91.55
2019-02-02T21:38:04.132Z,91.71
2019-02-02T21:40:30.478Z,91.60
2019-02-02T21:42:56.781Z,91.27
2019-02-02T21:45:23.100Z,91.15
2019-02-02T21:47:49.410Z,91.13
2019-02-02T21:50:15.762Z,91.37
2019-02-02T21:52:42.075Z,90.96
2019-02-02T21:55:08.379Z,91.01
2019-02-02T21:57:34.683Z,91.53
2019-02-02T22:00:01.003Z,91.75
2019-02-02T22:02:27.348Z,91.44
2019-02-02T22:04:53.698Z,91.90
2019-02-02T22:07:20.018Z,91.62
2019-02-02T22:09:46.325Z,90.96
2019-02-02T22:12:12.628Z,91.04
2019-02-02T22:14:39.067Z,90.83
2019-02-02T22:17:05.381Z,90.54
2019-02-02T22:19:31.823Z,90.68
2019-02-02T22:21:58.135Z,91.17
2019-02-02T22:24:24.575Z,91.83
2019-02-02T22:26:51.018Z,91.98
2019-02-02T22:29:17.467Z,91.50
2019-02-02T22:31:43.771Z,91.19
2019-02-02T22:34:10.089Z,90.67
2019-02-02T22:36:36.410Z,90.71
2019-02-02T22:39:02.734Z,90.48
2019-02-02T22:41:29.044Z,90.28
2019-02-02T22:43:55.353Z,90.30
2019-02-02T22:46:21.667Z,90.49
2019-02-02T22:48:47.977Z,90.55
2019-02-02T22:51:14.305Z,90.56
2019-02-02T22:53:40.640Z,90.04
2019-02-02T22:56:06.959Z,90.02
2019-02-02T22:58:35.771Z,89.44
2019-02-02T23:01:02.081Z,90.39
2019-02-02T23:03:28.507Z,90.18
2019-02-02T23:05:54.695Z,90.03
2019-02-02T23:08:21.007Z,90.15
2019-02-02T23:10:47.428Z,89.67
2019-02-02T23:13:13.735Z,90.54
2019-02-02T23:15:46.144Z,89.71
2019-02-02T23:18:12.394Z,89.99
2019-02-02T23:20:38.703Z,89.79
2019-02-02T23:23:05.038Z,89.97
2019-02-02T23:25:31.399Z,90.00
2019-02-02T23:27:57.711Z,89.82
2019-02-02T23:30:24.014Z,88.60
2019-02-02T23:32:54.951Z,89.32
2019-02-02T23:35:16.816Z,88.61
2019-02-02T23:37:43.124Z,89.15
2019-02-02T23:40:09.519Z,89.21
2019-02-02T23:42:36.249Z,89.73
2019-02-02T23:45:02.560Z,89.78
2019-02-02T23:47:28.868Z,90.42
2019-02-02T23:49:55.373Z,90.99
2019-02-02T23:52:21.510Z,90.05
2019-02-02T23:54:47.818Z,90.17
2019-02-02T23:57:14.130Z,90.78
2019-02-02T23:59:40.433Z,90.56
